Hlavní strana
METAR-TAF:

METAR-TAF

Letiště :

Anchorage, Aljaška, Spojené státy americké

Letiště Anchorage

zeměpisná šířka: 61-10-28N, zeměpisná délka: 149-59-46W, výška: 44 m

Aktuální stav počasí

Zpráva byla vytvořena před 36 minutami, v 17:53 UTC
Severoseverovýchodní vítr 7 kt
Teplota -12°C
Vlhkost vzduchu 56%
Tlak 999 hPa
Viditelnost: 16.1 km
Skoro jasno ve výšce 13000 ft

METAR: PANC 211753Z 02007KT 10SM FEW130 M12/M19 A2950 RMK AO2 SLP991 4/005 T11171194 11094 21117 56008 $

Čas: 09:29 (18:29 UTC)

Předpověď počasí

Zpráva byla vytvořena před 57 minutami, v 17:32 UTC
Předpověď platná od 21 v 18 UTC do 22 v 24 UTC
Severoseverovýchodní vítr 8 kt
Viditelnost: 10 km
Oblačno až skoro zataženo ve výšce 12000 ft
Od 22 v 0000 UTC
Severní vítr 8 kt
Viditelnost: 10 km
Polojasno ve výšce 4000 ft
Zataženo ve výšce 6000 ft
přeháňky v blízkosti

TAF: PANC 211732Z 2118/2224 02008KT P6SM BKN120 FM220000 36008KT P6SM VCSH SCT040 OVC060

Stav a předpovědi počasí z více než 4 000 letišť (zprávy METAR a TAF).

Červené a žluté tečky na mapě představují dostupné meteorologické stanice.

Když kurzor umístíte na tečku, zobrazí se název stanice.

Pak kliknutím zobrazíte stav a předpověď počasí.

Chcete-li změnit mapu, kliknutím na zelené tlačítko se znaménkem +mapu přiblížíte, kliknutím na zelené tlačítko se znaménkem – mapu oddálíte a kliknutím na zelené šipky přejdete na sousední mapy.


METAR-TAF: